sensor_id;sensor_type;location;lat;lon;timestamp;P1;durP1;ratioP1;P2;durP2;ratioP2
57155;SDS011;43023;59.928;10.682;2023-05-10T03:49:51;2.50;;;1.35;;
57155;SDS011;43023;59.928;10.682;2023-05-10T03:52:17;1.75;;;1.48;;
57155;SDS011;43023;59.928;10.682;2023-05-10T03:54:44;1.88;;;1.63;;
57155;SDS011;43023;59.928;10.682;2023-05-10T03:57:10;2.33;;;1.58;;
57155;SDS011;43023;59.928;10.682;2023-05-10T03:59:36;2.70;;;1.40;;
57155;SDS011;43023;59.928;10.682;2023-05-10T04:02:02;2.92;;;1.50;;
57155;SDS011;43023;59.928;10.682;2023-05-10T04:04:28;2.72;;;2.00;;
57155;SDS011;43023;59.928;10.682;2023-05-10T04:06:54;3.58;;;1.58;;
57155;SDS011;43023;59.928;10.682;2023-05-10T04:09:20;3.08;;;1.50;;
57155;SDS011;43023;59.928;10.682;2023-05-10T04:11:46;3.40;;;1.80;;
57155;SDS011;43023;59.928;10.682;2023-05-10T04:14:12;3.35;;;1.35;;
57155;SDS011;43023;59.928;10.682;2023-05-10T04:16:39;2.22;;;1.35;;
57155;SDS011;43023;59.928;10.682;2023-05-10T04:19:05;3.42;;;1.83;;
57155;SDS011;43023;59.928;10.682;2023-05-10T04:21:31;3.75;;;1.98;;
57155;SDS011;43023;59.928;10.682;2023-05-10T04:23:57;2.00;;;1.30;;
57155;SDS011;43023;59.928;10.682;2023-05-10T04:26:23;2.70;;;1.58;;
57155;SDS011;43023;59.928;10.682;2023-05-10T04:28:50;2.20;;;1.50;;
57155;SDS011;43023;59.928;10.682;2023-05-10T04:31:16;2.38;;;1.30;;
57155;SDS011;43023;59.928;10.682;2023-05-10T04:33:42;1.63;;;1.52;;
57155;SDS011;43023;59.928;10.682;2023-05-10T04:36:08;2.47;;;1.75;;
57155;SDS011;43023;59.928;10.682;2023-05-10T04:38:34;1.83;;;1.30;;
57155;SDS011;43023;59.928;10.682;2023-05-10T04:41:07;2.70;;;1.70;;
57155;SDS011;43023;59.928;10.682;2023-05-10T04:43:33;1.60;;;1.30;;
57155;SDS011;43023;59.928;10.682;2023-05-10T04:45:59;2.85;;;1.38;;
57155;SDS011;43023;59.928;10.682;2023-05-10T04:48:25;4.90;;;1.60;;
57155;SDS011;43023;59.928;10.682;2023-05-10T04:50:52;2.78;;;1.13;;
57155;SDS011;43023;59.928;10.682;2023-05-10T04:53:18;2.58;;;1.50;;
57155;SDS011;43023;59.928;10.682;2023-05-10T04:55:44;4.20;;;1.23;;
57155;SDS011;43023;59.928;10.682;2023-05-10T04:58:11;1.58;;;1.40;;
57155;SDS011;43023;59.928;10.682;2023-05-10T05:00:37;2.95;;;1.60;;
57155;SDS011;43023;59.928;10.682;2023-05-10T05:03:03;5.90;;;1.52;;
57155;SDS011;43023;59.928;10.682;2023-05-10T05:05:30;1.90;;;1.67;;
57155;SDS011;43023;59.928;10.682;2023-05-10T05:07:56;3.67;;;1.58;;
57155;SDS011;43023;59.928;10.682;2023-05-10T05:10:22;2.33;;;1.20;;
57155;SDS011;43023;59.928;10.682;2023-05-10T05:12:48;2.83;;;1.35;;
57155;SDS011;43023;59.928;10.682;2023-05-10T05:15:14;2.92;;;1.00;;
57155;SDS011;43023;59.928;10.682;2023-05-10T05:17:41;3.58;;;1.42;;
57155;SDS011;43023;59.928;10.682;2023-05-10T05:20:08;4.85;;;1.58;;
57155;SDS011;43023;59.928;10.682;2023-05-10T05:22:35;4.68;;;1.63;;
57155;SDS011;43023;59.928;10.682;2023-05-10T05:25:01;4.25;;;1.33;;
57155;SDS011;43023;59.928;10.682;2023-05-10T05:27:28;5.20;;;1.67;;
57155;SDS011;43023;59.928;10.682;2023-05-10T05:29:55;5.60;;;1.30;;
57155;SDS011;43023;59.928;10.682;2023-05-10T05:32:21;3.90;;;1.48;;
57155;SDS011;43023;59.928;10.682;2023-05-10T05:34:47;4.25;;;1.73;;
57155;SDS011;43023;59.928;10.682;2023-05-10T05:37:17;3.08;;;1.45;;
57155;SDS011;43023;59.928;10.682;2023-05-10T05:39:43;5.35;;;1.88;;
57155;SDS011;43023;59.928;10.682;2023-05-10T05:42:10;2.60;;;1.33;;
57155;SDS011;43023;59.928;10.682;2023-05-10T05:44:36;4.22;;;1.35;;
57155;SDS011;43023;59.928;10.682;2023-05-10T05:47:02;3.95;;;1.50;;
57155;SDS011;43023;59.928;10.682;2023-05-10T05:49:29;3.88;;;1.30;;
57155;SDS011;43023;59.928;10.682;2023-05-10T05:51:58;3.05;;;1.48;;
57155;SDS011;43023;59.928;10.682;2023-05-10T05:54:25;5.78;;;1.88;;
57155;SDS011;43023;59.928;10.682;2023-05-10T05:56:53;3.90;;;1.40;;
57155;SDS011;43023;59.928;10.682;2023-05-10T05:59:19;5.35;;;1.95;;
57155;SDS011;43023;59.928;10.682;2023-05-10T06:01:45;3.80;;;1.30;;
57155;SDS011;43023;59.928;10.682;2023-05-10T06:04:11;2.78;;;1.10;;
57155;SDS011;43023;59.928;10.682;2023-05-10T06:06:38;3.03;;;1.40;;
57155;SDS011;43023;59.928;10.682;2023-05-10T06:09:04;3.00;;;1.55;;
57155;SDS011;43023;59.928;10.682;2023-05-10T06:11:30;4.22;;;1.50;;
57155;SDS011;43023;59.928;10.682;2023-05-10T06:13:57;3.70;;;1.48;;
57155;SDS011;43023;59.928;10.682;2023-05-10T06:16:24;4.55;;;1.85;;
57155;SDS011;43023;59.928;10.682;2023-05-10T06:18:50;3.58;;;1.60;;
57155;SDS011;43023;59.928;10.682;2023-05-10T06:21:16;4.80;;;1.50;;
57155;SDS011;43023;59.928;10.682;2023-05-10T06:23:42;3.05;;;1.40;;
57155;SDS011;43023;59.928;10.682;2023-05-10T06:26:09;3.63;;;1.58;;
57155;SDS011;43023;59.928;10.682;2023-05-10T06:28:35;4.38;;;1.58;;
57155;SDS011;43023;59.928;10.682;2023-05-10T06:31:03;3.67;;;1.33;;
57155;SDS011;43023;59.928;10.682;2023-05-10T06:33:29;3.90;;;1.33;;
57155;SDS011;43023;59.928;10.682;2023-05-10T06:35:56;2.88;;;1.60;;
57155;SDS011;43023;59.928;10.682;2023-05-10T06:38:22;2.20;;;1.30;;
57155;SDS011;43023;59.928;10.682;2023-05-10T06:40:48;1.70;;;1.30;;
57155;SDS011;43023;59.928;10.682;2023-05-10T06:43:15;2.22;;;1.40;;
57155;SDS011;43023;59.928;10.682;2023-05-10T06:45:41;2.15;;;1.52;;
57155;SDS011;43023;59.928;10.682;2023-05-10T06:48:07;2.25;;;1.35;;
57155;SDS011;43023;59.928;10.682;2023-05-10T06:50:33;3.53;;;1.02;;
57155;SDS011;43023;59.928;10.682;2023-05-10T06:52:59;2.53;;;1.00;;
57155;SDS011;43023;59.928;10.682;2023-05-10T06:55:27;1.90;;;1.10;;
57155;SDS011;43023;59.928;10.682;2023-05-10T06:57:53;1.95;;;1.25;;
57155;SDS011;43023;59.928;10.682;2023-05-10T07:00:19;1.88;;;1.35;;
57155;SDS011;43023;59.928;10.682;2023-05-10T07:02:46;4.45;;;1.17;;
57155;SDS011;43023;59.928;10.682;2023-05-10T07:05:12;3.25;;;1.30;;
57155;SDS011;43023;59.928;10.682;2023-05-10T07:07:39;1.83;;;1.20;;
57155;SDS011;43023;59.928;10.682;2023-05-10T07:10:05;2.80;;;1.48;;
57155;SDS011;43023;59.928;10.682;2023-05-10T07:12:32;3.90;;;1.52;;
57155;SDS011;43023;59.928;10.682;2023-05-10T07:14:58;3.78;;;1.40;;
57155;SDS011;43023;59.928;10.682;2023-05-10T07:17:24;2.05;;;1.27;;
57155;SDS011;43023;59.928;10.682;2023-05-10T07:19:50;5.50;;;1.35;;
57155;SDS011;43023;59.928;10.682;2023-05-10T07:22:16;2.92;;;1.33;;
57155;SDS011;43023;59.928;10.682;2023-05-10T07:24:42;1.15;;;0.93;;
57155;SDS011;43023;59.928;10.682;2023-05-10T07:27:08;2.30;;;1.00;;
57155;SDS011;43023;59.928;10.682;2023-05-10T07:29:35;1.90;;;1.05;;
57155;SDS011;43023;59.928;10.682;2023-05-10T07:32:02;1.77;;;1.20;;
57155;SDS011;43023;59.928;10.682;2023-05-10T07:34:28;2.40;;;1.15;;
57155;SDS011;43023;59.928;10.682;2023-05-10T07:36:56;2.78;;;1.50;;
57155;SDS011;43023;59.928;10.682;2023-05-10T07:39:22;1.20;;;1.10;;
57155;SDS011;43023;59.928;10.682;2023-05-10T07:41:48;1.83;;;1.30;;
57155;SDS011;43023;59.928;10.682;2023-05-10T07:44:14;1.65;;;0.88;;
57155;SDS011;43023;59.928;10.682;2023-05-10T07:46:43;2.22;;;1.00;;
57155;SDS011;43023;59.928;10.682;2023-05-10T07:49:09;2.22;;;1.10;;
57155;SDS011;43023;59.928;10.682;2023-05-10T07:51:35;2.35;;;1.13;;
57155;SDS011;43023;59.928;10.682;2023-05-10T07:54:01;2.92;;;1.15;;
57155;SDS011;43023;59.928;10.682;2023-05-10T07:56:28;0.98;;;0.90;;
57155;SDS011;43023;59.928;10.682;2023-05-10T07:58:55;2.85;;;1.13;;
57155;SDS011;43023;59.928;10.682;2023-05-10T08:01:22;2.70;;;1.38;;
57155;SDS011;43023;59.928;10.682;2023-05-10T08:03:48;2.15;;;1.15;;
57155;SDS011;43023;59.928;10.682;2023-05-10T08:06:16;2.17;;;1.17;;
57155;SDS011;43023;59.928;10.682;2023-05-10T08:08:42;1.58;;;1.25;;
57155;SDS011;43023;59.928;10.682;2023-05-10T08:11:10;2.40;;;1.17;;
57155;SDS011;43023;59.928;10.682;2023-05-10T08:13:36;2.38;;;1.00;;
57155;SDS011;43023;59.928;10.682;2023-05-10T08:16:02;2.28;;;1.30;;
57155;SDS011;43023;59.928;10.682;2023-05-10T08:18:29;2.55;;;1.20;;
57155;SDS011;43023;59.928;10.682;2023-05-10T08:20:55;1.35;;;1.20;;
57155;SDS011;43023;59.928;10.682;2023-05-10T08:23:21;2.58;;;1.50;;
57155;SDS011;43023;59.928;10.682;2023-05-10T08:25:47;2.00;;;1.10;;
57155;SDS011;43023;59.928;10.682;2023-05-10T08:28:13;1.55;;;1.05;;
57155;SDS011;43023;59.928;10.682;2023-05-10T08:30:40;2.88;;;1.20;;
57155;SDS011;43023;59.928;10.682;2023-05-10T08:33:06;2.13;;;1.08;;
57155;SDS011;43023;59.928;10.682;2023-05-10T08:35:32;2.25;;;1.40;;
57155;SDS011;43023;59.928;10.682;2023-05-10T08:38:00;1.13;;;1.02;;
57155;SDS011;43023;59.928;10.682;2023-05-10T08:40:26;1.23;;;1.10;;
57155;SDS011;43023;59.928;10.682;2023-05-10T08:42:59;1.10;;;1.00;;
57155;SDS011;43023;59.928;10.682;2023-05-10T08:45:26;1.13;;;1.02;;
57155;SDS011;43023;59.928;10.682;2023-05-10T08:47:53;1.42;;;0.90;;
57155;SDS011;43023;59.928;10.682;2023-05-10T08:50:19;1.80;;;1.08;;
57155;SDS011;43023;59.928;10.682;2023-05-10T08:52:46;2.63;;;1.23;;
57155;SDS011;43023;59.928;10.682;2023-05-10T08:55:13;1.45;;;0.85;;
57155;SDS011;43023;59.928;10.682;2023-05-10T08:57:40;1.40;;;1.30;;
57155;SDS011;43023;59.928;10.682;2023-05-10T09:00:06;1.33;;;1.23;;
57155;SDS011;43023;59.928;10.682;2023-05-10T09:02:33;1.83;;;1.00;;
57155;SDS011;43023;59.928;10.682;2023-05-10T09:05:00;1.27;;;1.05;;
57155;SDS011;43023;59.928;10.682;2023-05-10T09:07:27;1.73;;;0.68;;
57155;SDS011;43023;59.928;10.682;2023-05-10T09:09:53;0.95;;;0.95;;
57155;SDS011;43023;59.928;10.682;2023-05-10T09:12:20;1.95;;;1.20;;
57155;SDS011;43023;59.928;10.682;2023-05-10T09:14:46;1.75;;;1.25;;
57155;SDS011;43023;59.928;10.682;2023-05-10T09:17:12;1.38;;;1.05;;
57155;SDS011;43023;59.928;10.682;2023-05-10T09:19:38;1.27;;;1.17;;
57155;SDS011;43023;59.928;10.682;2023-05-10T09:22:04;1.33;;;1.13;;
57155;SDS011;43023;59.928;10.682;2023-05-10T09:24:30;1.50;;;0.85;;
57155;SDS011;43023;59.928;10.682;2023-05-10T09:26:57;3.78;;;0.90;;
57155;SDS011;43023;59.928;10.682;2023-05-10T09:29:23;3.20;;;1.00;;
57155;SDS011;43023;59.928;10.682;2023-05-10T09:31:50;1.88;;;1.10;;
57155;SDS011;43023;59.928;10.682;2023-05-10T09:34:20;1.33;;;1.20;;
57155;SDS011;43023;59.928;10.682;2023-05-10T09:36:55;1.20;;;0.90;;
57155;SDS011;43023;59.928;10.682;2023-05-10T09:39:29;2.97;;;1.30;;
57155;SDS011;43023;59.928;10.682;2023-05-10T09:41:55;1.20;;;1.10;;
57155;SDS011;43023;59.928;10.682;2023-05-10T09:44:22;3.90;;;1.30;;
57155;SDS011;43023;59.928;10.682;2023-05-10T09:46:49;1.52;;;0.88;;
57155;SDS011;43023;59.928;10.682;2023-05-10T09:49:16;1.42;;;1.00;;
57155;SDS011;43023;59.928;10.682;2023-05-10T09:51:42;0.73;;;0.73;;
57155;SDS011;43023;59.928;10.682;2023-05-10T09:54:09;0.70;;;0.70;;
57155;SDS011;43023;59.928;10.682;2023-05-10T09:56:36;1.33;;;1.05;;
57155;SDS011;43023;59.928;10.682;2023-05-10T09:59:04;0.82;;;0.63;;
57155;SDS011;43023;59.928;10.682;2023-05-10T10:01:30;0.65;;;0.65;;
57155;SDS011;43023;59.928;10.682;2023-05-10T10:03:57;1.52;;;1.00;;
57155;SDS011;43023;59.928;10.682;2023-05-10T10:06:24;2.85;;;1.35;;
57155;SDS011;43023;59.928;10.682;2023-05-10T10:08:50;0.85;;;0.80;;
57155;SDS011;43023;59.928;10.682;2023-05-10T10:11:17;0.95;;;0.70;;
57155;SDS011;43023;59.928;10.682;2023-05-10T10:13:43;1.15;;;0.90;;
57155;SDS011;43023;59.928;10.682;2023-05-10T10:16:09;2.50;;;0.90;;
57155;SDS011;43023;59.928;10.682;2023-05-10T10:18:35;0.80;;;0.80;;
57155;SDS011;43023;59.928;10.682;2023-05-10T10:21:07;0.65;;;0.65;;
57155;SDS011;43023;59.928;10.682;2023-05-10T10:23:37;1.13;;;1.02;;
57155;SDS011;43023;59.928;10.682;2023-05-10T10:26:03;0.90;;;0.90;;
57155;SDS011;43023;59.928;10.682;2023-05-10T10:36:15;1.15;;;1.05;;
57155;SDS011;43023;59.928;10.682;2023-05-10T10:41:30;0.90;;;0.90;;
57155;SDS011;43023;59.928;10.682;2023-05-10T10:49:25;1.02;;;0.90;;
57155;SDS011;43023;59.928;10.682;2023-05-10T10:54:57;1.05;;;0.95;;
57155;SDS011;43023;59.928;10.682;2023-05-10T10:57:24;0.70;;;0.70;;
57155;SDS011;43023;59.928;10.682;2023-05-10T11:02:43;0.85;;;0.60;;
57155;SDS011;43023;59.928;10.682;2023-05-10T11:07:52;0.77;;;0.77;;
57155;SDS011;43023;59.928;10.682;2023-05-10T11:10:19;1.00;;;0.70;;
57155;SDS011;43023;59.928;10.682;2023-05-10T11:13:01;0.90;;;0.90;;
57155;SDS011;43023;59.928;10.682;2023-05-10T11:15:39;1.25;;;1.13;;
57155;SDS011;43023;59.928;10.682;2023-05-10T11:18:18;1.00;;;0.90;;
57155;SDS011;43023;59.928;10.682;2023-05-10T11:20:44;2.33;;;1.08;;
57155;SDS011;43023;59.928;10.682;2023-05-10T11:23:15;2.08;;;0.93;;
57155;SDS011;43023;59.928;10.682;2023-05-10T11:25:43;1.35;;;1.00;;
57155;SDS011;43023;59.928;10.682;2023-05-10T11:28:09;0.75;;;0.65;;
57155;SDS011;43023;59.928;10.682;2023-05-10T11:30:37;1.10;;;1.00;;
57155;SDS011;43023;59.928;10.682;2023-05-10T11:33:04;1.08;;;0.70;;
57155;SDS011;43023;59.928;10.682;2023-05-10T11:35:31;0.88;;;0.88;;
57155;SDS011;43023;59.928;10.682;2023-05-10T11:38:04;0.75;;;0.75;;
57155;SDS011;43023;59.928;10.682;2023-05-10T11:40:30;0.65;;;0.60;;
57155;SDS011;43023;59.928;10.682;2023-05-10T11:42:56;1.60;;;1.02;;
57155;SDS011;43023;59.928;10.682;2023-05-10T11:45:26;1.02;;;0.90;;
57155;SDS011;43023;59.928;10.682;2023-05-10T11:47:54;1.55;;;0.88;;
57155;SDS011;43023;59.928;10.682;2023-05-10T11:50:20;0.85;;;0.60;;
57155;SDS011;43023;59.928;10.682;2023-05-10T11:52:50;0.80;;;0.80;;
57155;SDS011;43023;59.928;10.682;2023-05-10T11:55:16;1.17;;;0.73;;
57155;SDS011;43023;59.928;10.682;2023-05-10T11:57:42;1.25;;;0.80;;
57155;SDS011;43023;59.928;10.682;2023-05-10T12:00:11;1.10;;;1.00;;
57155;SDS011;43023;59.928;10.682;2023-05-10T12:02:37;0.88;;;0.88;;
57155;SDS011;43023;59.928;10.682;2023-05-10T12:05:03;1.63;;;1.00;;
57155;SDS011;43023;59.928;10.682;2023-05-10T12:07:30;1.35;;;0.85;;
57155;SDS011;43023;59.928;10.682;2023-05-10T12:10:06;2.35;;;1.02;;
57155;SDS011;43023;59.928;10.682;2023-05-10T12:12:40;1.50;;;1.27;;
57155;SDS011;43023;59.928;10.682;2023-05-10T12:15:16;3.33;;;0.75;;
57155;SDS011;43023;59.928;10.682;2023-05-10T12:17:44;1.65;;;1.00;;
57155;SDS011;43023;59.928;10.682;2023-05-10T12:20:17;2.42;;;1.00;;
57155;SDS011;43023;59.928;10.682;2023-05-10T12:22:43;0.95;;;0.80;;
57155;SDS011;43023;59.928;10.682;2023-05-10T12:25:10;0.98;;;0.90;;
57155;SDS011;43023;59.928;10.682;2023-05-10T12:27:36;2.60;;;0.80;;
57155;SDS011;43023;59.928;10.682;2023-05-10T12:30:02;2.38;;;0.98;;
57155;SDS011;43023;59.928;10.682;2023-05-10T12:32:40;0.80;;;0.68;;
57155;SDS011;43023;59.928;10.682;2023-05-10T12:35:07;0.90;;;0.90;;
57155;SDS011;43023;59.928;10.682;2023-05-10T12:37:34;0.70;;;0.70;;
57155;SDS011;43023;59.928;10.682;2023-05-10T12:40:05;0.55;;;0.55;;
57155;SDS011;43023;59.928;10.682;2023-05-10T12:42:31;0.70;;;0.70;;
57155;SDS011;43023;59.928;10.682;2023-05-10T12:44:57;1.02;;;0.70;;
57155;SDS011;43023;59.928;10.682;2023-05-10T12:47:23;0.70;;;0.70;;
57155;SDS011;43023;59.928;10.682;2023-05-10T12:49:50;1.45;;;1.10;;
57155;SDS011;43023;59.928;10.682;2023-05-10T12:52:16;0.70;;;0.70;;
57155;SDS011;43023;59.928;10.682;2023-05-10T12:54:42;1.25;;;0.95;;
57155;SDS011;43023;59.928;10.682;2023-05-10T12:57:08;1.52;;;1.35;;
57155;SDS011;43023;59.928;10.682;2023-05-10T12:59:35;1.23;;;0.70;;
57155;SDS011;43023;59.928;10.682;2023-05-10T13:02:01;1.50;;;0.95;;
57155;SDS011;43023;59.928;10.682;2023-05-10T13:04:27;0.50;;;0.50;;
57155;SDS011;43023;59.928;10.682;2023-05-10T13:06:53;3.13;;;0.90;;
57155;SDS011;43023;59.928;10.682;2023-05-10T13:09:23;0.85;;;0.77;;
57155;SDS011;43023;59.928;10.682;2023-05-10T13:11:50;3.60;;;1.10;;
57155;SDS011;43023;59.928;10.682;2023-05-10T13:14:18;0.80;;;0.80;;
57155;SDS011;43023;59.928;10.682;2023-05-10T13:16:45;1.67;;;1.10;;
57155;SDS011;43023;59.928;10.682;2023-05-10T13:19:12;3.97;;;0.80;;
57155;SDS011;43023;59.928;10.682;2023-05-10T13:21:38;1.00;;;0.90;;
57155;SDS011;43023;59.928;10.682;2023-05-10T13:24:06;3.03;;;0.60;;
57155;SDS011;43023;59.928;10.682;2023-05-10T13:26:32;0.63;;;0.63;;
57155;SDS011;43023;59.928;10.682;2023-05-10T13:28:58;1.23;;;0.90;;
57155;SDS011;43023;59.928;10.682;2023-05-10T13:31:24;0.73;;;0.68;;
57155;SDS011;43023;59.928;10.682;2023-05-10T13:33:50;1.40;;;1.05;;
57155;SDS011;43023;59.928;10.682;2023-05-10T13:36:16;0.70;;;0.70;;
57155;SDS011;43023;59.928;10.682;2023-05-10T13:38:42;0.90;;;0.80;;
57155;SDS011;43023;59.928;10.682;2023-05-10T13:41:09;0.80;;;0.80;;
57155;SDS011;43023;59.928;10.682;2023-05-10T13:43:35;0.80;;;0.75;;
57155;SDS011;43023;59.928;10.682;2023-05-10T13:46:01;4.13;;;0.90;;
57155;SDS011;43023;59.928;10.682;2023-05-10T13:48:27;0.60;;;0.60;;
57155;SDS011;43023;59.928;10.682;2023-05-10T13:50:54;1.35;;;0.88;;
57155;SDS011;43023;59.928;10.682;2023-05-10T13:53:20;1.10;;;0.90;;
57155;SDS011;43023;59.928;10.682;2023-05-10T13:55:46;0.63;;;0.63;;
57155;SDS011;43023;59.928;10.682;2023-05-10T13:58:12;1.25;;;0.80;;
57155;SDS011;43023;59.928;10.682;2023-05-10T14:00:38;1.08;;;0.95;;
57155;SDS011;43023;59.928;10.682;2023-05-10T14:03:05;1.10;;;0.70;;
57155;SDS011;43023;59.928;10.682;2023-05-10T14:05:31;2.63;;;0.90;;
57155;SDS011;43023;59.928;10.682;2023-05-10T14:07:58;0.65;;;0.57;;
57155;SDS011;43023;59.928;10.682;2023-05-10T14:10:24;0.70;;;0.70;;
57155;SDS011;43023;59.928;10.682;2023-05-10T14:12:50;1.55;;;0.50;;
57155;SDS011;43023;59.928;10.682;2023-05-10T14:15:16;1.48;;;0.80;;
57155;SDS011;43023;59.928;10.682;2023-05-10T14:17:43;2.08;;;0.73;;
57155;SDS011;43023;59.928;10.682;2023-05-10T14:20:09;1.05;;;0.90;;
57155;SDS011;43023;59.928;10.682;2023-05-10T14:22:35;3.05;;;1.10;;
57155;SDS011;43023;59.928;10.682;2023-05-10T14:25:01;3.00;;;1.20;;
57155;SDS011;43023;59.928;10.682;2023-05-10T14:27:27;1.20;;;1.05;;
57155;SDS011;43023;59.928;10.682;2023-05-10T14:29:54;4.65;;;1.00;;
57155;SDS011;43023;59.928;10.682;2023-05-10T14:32:20;10.60;;;1.10;;
57155;SDS011;43023;59.928;10.682;2023-05-10T14:34:46;5.18;;;1.80;;
57155;SDS011;43023;59.928;10.682;2023-05-10T14:37:13;4.60;;;1.05;;
57155;SDS011;43023;59.928;10.682;2023-05-10T14:39:40;1.30;;;0.95;;
57155;SDS011;43023;59.928;10.682;2023-05-10T14:42:07;4.55;;;0.88;;
57155;SDS011;43023;59.928;10.682;2023-05-10T14:44:33;3.03;;;1.20;;
57155;SDS011;43023;59.928;10.682;2023-05-10T14:47:00;3.42;;;1.27;;
57155;SDS011;43023;59.928;10.682;2023-05-10T14:49:26;6.45;;;1.42;;
57155;SDS011;43023;59.928;10.682;2023-05-10T14:51:52;9.95;;;1.90;;
57155;SDS011;43023;59.928;10.682;2023-05-10T14:54:18;5.20;;;2.00;;
57155;SDS011;43023;59.928;10.682;2023-05-10T14:56:44;5.47;;;1.48;;
57155;SDS011;43023;59.928;10.682;2023-05-10T14:59:11;4.53;;;1.40;;
57155;SDS011;43023;59.928;10.682;2023-05-10T15:01:37;1.85;;;1.30;;
57155;SDS011;43023;59.928;10.682;2023-05-10T15:04:06;4.45;;;1.25;;
57155;SDS011;43023;59.928;10.682;2023-05-10T15:06:32;4.47;;;1.58;;
57155;SDS011;43023;59.928;10.682;2023-05-10T15:08:59;1.67;;;1.30;;
57155;SDS011;43023;59.928;10.682;2023-05-10T15:11:25;3.70;;;1.30;;
57155;SDS011;43023;59.928;10.682;2023-05-10T15:13:51;2.20;;;1.30;;
57155;SDS011;43023;59.928;10.682;2023-05-10T15:16:18;2.95;;;1.17;;
57155;SDS011;43023;59.928;10.682;2023-05-10T15:18:44;3.72;;;1.33;;
57155;SDS011;43023;59.928;10.682;2023-05-10T15:21:11;3.33;;;1.10;;
57155;SDS011;43023;59.928;10.682;2023-05-10T15:23:37;3.88;;;2.13;;
57155;SDS011;43023;59.928;10.682;2023-05-10T15:26:03;3.03;;;1.40;;
57155;SDS011;43023;59.928;10.682;2023-05-10T15:28:29;3.08;;;1.30;;
57155;SDS011;43023;59.928;10.682;2023-05-10T15:30:56;3.78;;;1.63;;
57155;SDS011;43023;59.928;10.682;2023-05-10T15:33:22;2.08;;;1.50;;
57155;SDS011;43023;59.928;10.682;2023-05-10T15:35:48;6.43;;;1.80;;
57155;SDS011;43023;59.928;10.682;2023-05-10T15:38:14;6.38;;;1.35;;
57155;SDS011;43023;59.928;10.682;2023-05-10T15:40:40;2.05;;;1.40;;
57155;SDS011;43023;59.928;10.682;2023-05-10T15:43:06;2.78;;;1.20;;
57155;SDS011;43023;59.928;10.682;2023-05-10T15:45:32;1.67;;;1.20;;
57155;SDS011;43023;59.928;10.682;2023-05-10T15:47:58;4.03;;;1.60;;
57155;SDS011;43023;59.928;10.682;2023-05-10T15:50:25;4.03;;;1.45;;
57155;SDS011;43023;59.928;10.682;2023-05-10T15:52:51;2.47;;;1.20;;
57155;SDS011;43023;59.928;10.682;2023-05-10T15:55:18;1.48;;;1.20;;
57155;SDS011;43023;59.928;10.682;2023-05-10T15:57:44;2.80;;;1.20;;
57155;SDS011;43023;59.928;10.682;2023-05-10T16:00:11;2.65;;;1.63;;
57155;SDS011;43023;59.928;10.682;2023-05-10T16:02:40;3.15;;;1.80;;
57155;SDS011;43023;59.928;10.682;2023-05-10T16:05:07;3.22;;;1.38;;
57155;SDS011;43023;59.928;10.682;2023-05-10T16:07:34;4.00;;;1.20;;
57155;SDS011;43023;59.928;10.682;2023-05-10T16:10:00;1.92;;;1.30;;
57155;SDS011;43023;59.928;10.682;2023-05-10T16:12:30;3.22;;;1.63;;
57155;SDS011;43023;59.928;10.682;2023-05-10T16:14:56;3.95;;;1.42;;
57155;SDS011;43023;59.928;10.682;2023-05-10T16:17:22;5.93;;;1.20;;
57155;SDS011;43023;59.928;10.682;2023-05-10T16:19:48;1.63;;;1.33;;
57155;SDS011;43023;59.928;10.682;2023-05-10T16:22:15;3.63;;;1.45;;
57155;SDS011;43023;59.928;10.682;2023-05-10T16:24:41;3.58;;;1.10;;
57155;SDS011;43023;59.928;10.682;2023-05-10T16:27:07;1.63;;;1.25;;
57155;SDS011;43023;59.928;10.682;2023-05-10T16:29:33;0.95;;;0.90;;
57155;SDS011;43023;59.928;10.682;2023-05-10T16:32:00;1.55;;;1.00;;
57155;SDS011;43023;59.928;10.682;2023-05-10T16:34:26;1.90;;;1.60;;
57155;SDS011;43023;59.928;10.682;2023-05-10T16:36:52;1.52;;;1.42;;
57155;SDS011;43023;59.928;10.682;2023-05-10T16:39:18;1.33;;;1.20;;
57155;SDS011;43023;59.928;10.682;2023-05-10T16:41:44;2.00;;;1.10;;
57155;SDS011;43023;59.928;10.682;2023-05-10T16:44:10;2.17;;;1.20;;
57155;SDS011;43023;59.928;10.682;2023-05-10T16:46:36;5.55;;;1.63;;
57155;SDS011;43023;59.928;10.682;2023-05-10T16:49:02;1.77;;;1.02;;
57155;SDS011;43023;59.928;10.682;2023-05-10T16:51:28;3.88;;;1.30;;
57155;SDS011;43023;59.928;10.682;2023-05-10T16:53:55;1.20;;;1.05;;
57155;SDS011;43023;59.928;10.682;2023-05-10T16:56:21;2.35;;;1.33;;
57155;SDS011;43023;59.928;10.682;2023-05-10T16:58:47;1.85;;;1.42;;
57155;SDS011;43023;59.928;10.682;2023-05-10T17:01:14;1.58;;;1.48;;
57155;SDS011;43023;59.928;10.682;2023-05-10T17:03:40;4.68;;;1.88;;
57155;SDS011;43023;59.928;10.682;2023-05-10T17:06:06;2.17;;;1.33;;
57155;SDS011;43023;59.928;10.682;2023-05-10T17:08:33;1.20;;;1.10;;
57155;SDS011;43023;59.928;10.682;2023-05-10T17:11:02;6.38;;;1.60;;
57155;SDS011;43023;59.928;10.682;2023-05-10T17:13:28;2.03;;;1.60;;
57155;SDS011;43023;59.928;10.682;2023-05-10T17:15:55;2.53;;;1.45;;
57155;SDS011;43023;59.928;10.682;2023-05-10T17:18:21;2.75;;;1.52;;
57155;SDS011;43023;59.928;10.682;2023-05-10T17:20:47;4.47;;;1.70;;
57155;SDS011;43023;59.928;10.682;2023-05-10T17:23:13;2.45;;;1.48;;
57155;SDS011;43023;59.928;10.682;2023-05-10T17:25:39;5.57;;;1.88;;
57155;SDS011;43023;59.928;10.682;2023-05-10T17:28:06;3.63;;;1.92;;
57155;SDS011;43023;59.928;10.682;2023-05-10T17:30:32;3.80;;;1.75;;
57155;SDS011;43023;59.928;10.682;2023-05-10T17:32:58;2.30;;;1.58;;
57155;SDS011;43023;59.928;10.682;2023-05-10T17:35:25;2.50;;;1.40;;
57155;SDS011;43023;59.928;10.682;2023-05-10T17:37:51;4.07;;;2.00;;
57155;SDS011;43023;59.928;10.682;2023-05-10T17:40:17;2.85;;;1.67;;
57155;SDS011;43023;59.928;10.682;2023-05-10T17:42:43;5.25;;;1.88;;
57155;SDS011;43023;59.928;10.682;2023-05-10T17:45:10;2.17;;;1.50;;
57155;SDS011;43023;59.928;10.682;2023-05-10T17:47:36;5.68;;;2.22;;
57155;SDS011;43023;59.928;10.682;2023-05-10T17:50:02;3.78;;;1.40;;
57155;SDS011;43023;59.928;10.682;2023-05-10T17:52:29;3.38;;;1.90;;
57155;SDS011;43023;59.928;10.682;2023-05-10T17:54:55;4.03;;;1.60;;
57155;SDS011;43023;59.928;10.682;2023-05-10T17:57:21;2.28;;;1.52;;
57155;SDS011;43023;59.928;10.682;2023-05-10T17:59:48;5.13;;;1.92;;
57155;SDS011;43023;59.928;10.682;2023-05-10T18:02:14;3.15;;;1.50;;
57155;SDS011;43023;59.928;10.682;2023-05-10T18:04:40;2.15;;;1.55;;
57155;SDS011;43023;59.928;10.682;2023-05-10T18:07:07;2.72;;;1.80;;
57155;SDS011;43023;59.928;10.682;2023-05-10T18:09:33;2.85;;;1.98;;
57155;SDS011;43023;59.928;10.682;2023-05-10T18:12:02;4.78;;;1.92;;
57155;SDS011;43023;59.928;10.682;2023-05-10T18:14:29;4.28;;;1.83;;
57155;SDS011;43023;59.928;10.682;2023-05-10T18:16:56;3.22;;;2.20;;
57155;SDS011;43023;59.928;10.682;2023-05-10T18:19:22;4.07;;;1.67;;
57155;SDS011;43023;59.928;10.682;2023-05-10T18:21:51;2.80;;;1.40;;
57155;SDS011;43023;59.928;10.682;2023-05-10T18:24:18;2.60;;;1.83;;
57155;SDS011;43023;59.928;10.682;2023-05-10T18:26:47;2.78;;;1.30;;
57155;SDS011;43023;59.928;10.682;2023-05-10T18:29:13;2.72;;;1.40;;
57155;SDS011;43023;59.928;10.682;2023-05-10T18:31:40;2.67;;;1.55;;
57155;SDS011;43023;59.928;10.682;2023-05-10T18:34:06;2.45;;;1.80;;
57155;SDS011;43023;59.928;10.682;2023-05-10T18:36:32;6.65;;;1.55;;
57155;SDS011;43023;59.928;10.682;2023-05-10T18:38:58;2.78;;;1.63;;
57155;SDS011;43023;59.928;10.682;2023-05-10T18:41:25;3.75;;;1.70;;
57155;SDS011;43023;59.928;10.682;2023-05-10T18:43:51;2.80;;;1.63;;